Terminal Aerodrome Forecast
Issued by NWS

Home | Current Version | Previous Version | Text Only | Print | Product List | Glossary Off
Versions: 1 2 3 4 5 6 7 8 9 10 11 12 13 14 15 16 17

000
FTUS43 KMPX 251415 AAA
TAFRNH
TAF AMD
KRNH 251415Z 2514/2612 33010KT P6SM SCT018
      TEMPO 2515/2518 BKN018
     FM251800 32010KT P6SM BKN035
     FM260000 35003KT P6SM SKC=

USA.gov is the U.S. government's official web portal to all federal, state and local government web resources and services.